Latest Weather Observations for West Wyalong

IDN60801

Issued at 2:32 pm EDT Wednesday 22 February 2017 (issued every 30 minutes, with the page automatically refreshed every 10 minutes)

About weather observations | Map of weather stations | Latest weather observations for NSW | Other Formats
Station Details ID: 050017 Name: WEST WYALONG AIRPORT AWS Lat: -33.94 Lon: 147.20 Height: 257.0 m
Data from the previous 72 hours. | See also: Recent months at West Wyalong
Date/Time
EDT
Temp
°C
App
Temp
°C
Dew
Point
°C
Rel
Hum
%
Delta-T
°C
Wind Press
QNH
hPa
Press
MSL
hPa
Rain since
9am
mm
Dir  Spd
km/h
Gust
km/h
Spd
kts
Gust
kts
22/02:30pm 33.6 28.0 1.4 13 16.3 N 20 30 11 16 1016.1 1014.7 0.0
22/02:00pm 33.6 29.7 3.4 15 15.8 NW 13 26 7 14 1016.5 1015.1 0.0
22/01:30pm 32.8 28.0 2.8 15 15.5 N 17 32 9 17 1017.1 1015.7 0.0
22/01:00pm 33.1 27.8 2.1 14 15.8 NNE 19 28 10 15 1017.3 1015.9 0.0
22/12:30pm 31.5 26.5 3.5 17 14.5 NNE 19 30 10 16 1017.8 1016.4 0.0
22/12:00pm 30.8 26.0 4.5 19 13.8 N 19 28 10 15 1018.2 1016.8 0.0
22/11:30am 29.7 25.6 8.7 27 11.7 NNE 20 26 11 14 1018.6 1017.2 0.0
22/11:00am 28.4 24.7 10.1 32 10.4 NNE 20 28 11 15 1018.9 1017.5 0.0
22/10:30am 26.8 22.9 10.9 37 9.1 NNE 22 30 12 16 1019.2 1017.8 0.0
22/10:00am 24.9 20.9 9.2 37 8.6 NNE 20 28 11 15 1019.3 1017.9 0.0
22/09:30am 23.2 19.1 7.7 37 8.2 NNE 19 26 10 14 1019.3 1017.9 0.0
22/09:00am 21.1 17.0 4.6 34 8.1 NNE 15 20 8 11 1019.2 1017.8 0.0
22/08:30am 18.8 16.6 5.3 41 6.7 ENE 6 11 3 6 1019.1 1017.7 0.0
22/08:00am 16.1 14.5 7.8 58 4.2 E 6 7 3 4 1018.9 1017.5 0.0
22/07:30am 11.9 11.0 6.2 68 2.7 CALM 0 0 0 0 1018.5 1017.1 0.0
22/07:00am 10.1 8.8 4.3 67 2.6 CALM 0 0 0 0 1018.2 1016.8 0.0
22/06:30am 10.9 9.5 3.5 60 3.3 CALM 0 0 0 0 1017.9 1016.5 0.0
22/06:00am 11.3 9.9 3.8 60 3.4 CALM 0 0 0 0 1017.6 1016.2 0.0
22/05:30am 11.6 10.0 2.4 53 4.0 CALM 0 0 0 0 1017.4 1016.0 0.0
22/05:00am 12.6 11.0 2.5 50 4.5 CALM 0 0 0 0 1017.3 1015.9 0.0
22/04:30am 11.8 10.0 1.2 48 4.5 CALM 0 0 0 0 1017.2 1015.8 0.0
22/04:00am 13.0 10.9 1.4 45 5.0 SSE 2 6 1 3 1017.1 1015.7 0.0
22/03:30am 12.0 9.8 0.8 46 4.7 SW 2 7 1 4 1016.9 1015.6 0.0
22/03:00am 11.7 9.8 0.8 47 4.6 CALM 0 0 0 0 1016.9 1015.6 0.0
22/02:30am 11.9 10.1 1.0 47 4.6 CALM 0 0 0 0 1017.3 1015.9 0.0
22/02:00am 12.1 10.2 0.8 46 4.8 CALM 0 0 0 0 1017.7 1016.3 0.0
22/01:30am 12.4 10.5 0.8 45 4.9 CALM 0 0 0 0 1017.9 1016.5 0.0
22/01:00am 13.0 11.2 1.0 44 5.1 CALM 0 0 0 0 1018.2 1016.8 0.0
22/12:30am 13.9 12.1 1.2 42 5.5 CALM 0 0 0 0 1018.5 1017.1 0.0
22/12:00am 14.1 12.3 1.1 41 5.6 CALM 0 0 0 0 1018.6 1017.2 0.0
 
Date/Time
EDT
Temp
°C
App
Temp
°C
Dew
Point
°C
Rel
Hum
%
Delta-T
°C
Wind Press
QNH
hPa
Press
MSL
hPa
Rain since
9am
mm
Dir  Spd
km/h
Gust
km/h
Spd
kts
Gust
kts
21/11:30pm 14.5 11.5 0.7 39 6.0 WSW 6 6 3 3 1018.5 1017.1 0.0
21/11:00pm 15.2 12.0 1.0 38 6.2 WSW 7 7 4 4 1018.5 1017.1 0.0
21/10:30pm 15.7 12.6 0.3 35 6.7 WSW 6 6 3 3 1018.5 1017.1 0.0
21/10:00pm 17.2 13.7 1.2 34 7.2 WSW 9 9 5 5 1018.5 1017.1 0.0
21/09:30pm 17.6 15.7 0.7 32 7.5 CALM 0 0 0 0 1018.5 1017.1 0.0
21/09:00pm 18.8 16.9 0.4 29 8.2 CALM 0 0 0 0 1018.3 1016.9 0.0
21/08:30pm 21.0 19.0 -0.3 24 9.6 CALM 0 0 0 0 1017.9 1016.5 0.0
21/08:00pm 23.7 20.5 -0.6 20 11.1 SE 6 7 3 4 1017.8 1016.4 0.0
21/07:30pm 26.3 22.9 -0.7 17 12.5 ESE 7 9 4 5 1017.6 1016.2 0.0
21/07:00pm 27.2 23.4 -0.8 16 13.1 ESE 9 15 5 8 1017.4 1016.0 0.0
21/06:30pm 27.5 24.1 -0.5 16 13.2 ENE 7 13 4 7 1016.9 1015.6 0.0
21/06:00pm 27.4 23.6 -0.6 16 13.1 SSE 9 19 5 10 1017.1 1015.7 0.0
21/05:30pm 27.3 23.0 -1.6 15 13.3 SSE 11 22 6 12 1017.3 1015.9 0.0
21/05:00pm 26.9 22.6 -1.9 15 13.1 NE 11 22 6 12 1017.4 1016.0 0.0
21/04:30pm 27.3 22.9 -2.5 14 13.5 S 11 17 6 9 1017.7 1016.3 0.0
21/04:00pm 27.3 22.6 -1.6 15 13.3 SE 13 20 7 11 1017.9 1016.5 0.0
21/03:30pm 26.3 21.7 -0.7 17 12.5 SE 13 24 7 13 1018.2 1016.8 0.0
21/03:00pm 26.9 23.3 0.6 18 12.5 S 9 15 5 8 1018.7 1017.3 0.0
21/02:30pm 26.7 23.0 -0.3 17 12.7 SE 9 20 5 11 1019.1 1017.7 0.0
21/02:00pm 25.6 21.6 0.3 19 11.9 SE 11 22 6 12 1019.5 1018.1 0.0
21/01:30pm 24.7 20.4 0.9 21 11.3 S 13 26 7 14 1019.6 1018.2 0.0
21/01:00pm 24.6 20.6 0.8 21 11.2 SE 11 20 6 11 1020.1 1018.8 0.0
21/12:30pm 24.0 19.8 1.6 23 10.7 SSE 13 22 7 12 1020.6 1019.3 0.0
21/12:00pm 22.4 18.2 1.4 25 9.8 SE 13 20 7 11 1021.0 1019.7 0.0
21/11:30am 22.4 18.3 2.0 26 9.7 SE 13 19 7 10 1021.3 1019.9 0.0
21/11:00am 21.7 17.9 1.9 27 9.3 ENE 11 20 6 11 1021.5 1020.1 0.0
21/10:30am 21.4 17.7 2.2 28 9.1 E 11 19 6 10 1021.7 1020.3 0.0
21/10:00am 20.1 16.0 2.5 31 8.3 SE 13 17 7 9 1021.7 1020.3 0.0
21/09:30am 19.2 16.0 3.0 34 7.7 ESE 9 15 5 8 1021.6 1020.2 0.0
21/09:00am 17.5 14.3 3.0 38 6.7 ESE 9 13 5 7 1021.3 1019.9 0.0
21/08:30am 16.0 12.9 3.4 43 5.9 ESE 9 13 5 7 1020.8 1019.5 0.0
21/08:00am 12.8 11.4 3.5 53 4.2 CALM 0 0 0 0 1020.2 1018.9 0.0
21/07:30am 9.2 7.7 3.2 66 2.6 CALM 0 0 0 0 1019.9 1018.5 0.0
21/07:00am 7.3 5.7 2.2 70 2.1 CALM 0 0 0 0 1019.2 1017.8 0.0
21/06:30am 7.5 5.9 2.2 69 2.2 CALM 0 0 0 0 1019.0 1017.6 0.0
21/06:00am 7.7 6.0 2.0 67 2.4 CALM 0 0 0 0 1018.6 1017.2 0.0
21/05:30am 8.1 6.4 1.9 65 2.6 CALM 0 0 0 0 1018.3 1016.9 0.0
21/05:00am 8.8 7.2 2.4 64 2.7 CALM 0 0 0 0 1018.1 1016.7 0.0
21/04:30am 8.9 7.3 2.3 63 2.8 CALM 0 0 0 0 1018.2 1016.8 0.0
21/04:00am 9.2 7.6 2.3 62 2.9 CALM 0 0 0 0 1018.2 1016.8 0.0
21/03:30am 9.5 7.8 2.1 60 3.2 CALM 0 0 0 0 1018.3 1016.9 0.0
21/03:00am 9.5 7.8 1.9 59 3.2 CALM 0 0 0 0 1018.2 1016.8 0.0
21/02:30am 9.6 7.9 1.8 58 3.3 CALM 0 0 0 0 1018.3 1016.9 0.0
21/02:00am 10.4 8.7 2.0 56 3.6 CALM 0 0 0 0 1018.4 1017.0 0.0
21/01:30am 10.8 9.0 1.4 52 4.0 CALM 0 0 0 0 1018.7 1017.3 0.0
21/01:00am 12.3 9.5 2.2 50 4.4 SW 6 6 3 3 1018.8 1017.4 0.0
21/12:30am 12.5 9.7 1.8 48 4.7 WSW 6 7 3 4 1018.8 1017.4 0.0
21/12:00am 11.9 10.1 1.5 49 4.5 CALM 0 7 0 4 1018.6 1017.2 0.0
 
Date/Time
EDT
Temp
°C
App
Temp
°C
Dew
Point
°C
Rel
Hum
%
Delta-T
°C
Wind Press
QNH
hPa
Press
MSL
hPa
Rain since
9am
mm
Dir  Spd
km/h
Gust
km/h
Spd
kts
Gust
kts
20/11:30pm 12.9 10.0 1.6 46 4.9 SW 6 7 3 4 1018.5 1017.1 0.0
20/11:00pm 13.4 11.6 1.4 44 5.2 CALM 0 0 0 0 1018.4 1017.0 0.0
20/10:30pm 14.5 12.7 1.1 40 5.9 CALM 0 0 0 0 1018.3 1016.9 0.0
20/10:00pm 15.4 12.3 1.2 38 6.3 WSW 7 11 4 6 1018.0 1016.6 0.0
20/09:30pm 15.5 12.3 0.5 36 6.5 SW 7 9 4 5 1017.6 1016.2 0.0
20/09:00pm 17.5 14.3 0.6 32 7.5 WSW 7 9 4 5 1017.1 1015.7 0.0
20/08:30pm 18.0 14.4 0.6 31 7.8 SW 9 11 5 6 1016.4 1015.0 0.0
20/08:00pm 19.7 15.7 0.7 28 8.6 SSW 11 17 6 9 1015.9 1014.5 0.0
20/07:30pm 21.0 15.9 0.8 26 9.3 SW 17 24 9 13 1015.4 1014.0 0.0
20/07:00pm 22.1 17.0 0.6 24 9.9 SW 17 28 9 15 1015.0 1013.6 0.0
20/06:30pm 22.2 16.6 0.1 23 10.1 SSW 19 33 10 18 1014.8 1013.4 0.0
20/06:00pm 22.9 17.4 0.7 23 10.3 SW 19 30 10 16 1014.5 1013.1 0.0
20/05:30pm 22.6 17.8 0.4 23 10.2 SW 15 33 8 18 1014.3 1012.9 0.0
20/05:00pm 23.0 17.2 0.2 22 10.5 WSW 20 30 11 16 1014.4 1013.0 0.0
20/04:30pm 22.9 17.0 -0.6 21 10.7 SW 20 30 11 16 1014.4 1013.0 0.0
20/04:00pm 23.0 17.2 0.2 22 10.5 SW 20 33 11 18 1014.4 1013.0 0.0
20/03:30pm 22.1 16.9 0.0 23 10.1 SW 17 28 9 15 1014.3 1012.9 0.0
20/03:00pm 22.6 17.1 0.4 23 10.2 WSW 19 33 10 18 1014.3 1012.9 0.0
20/02:30pm 21.8 15.8 -1.5 21 10.3 SW 20 32 11 17 1014.6 1013.2 0.0
20/02:00pm 21.8 16.2 1.5 26 9.5 WSW 20 26 11 14 1014.6 1013.2 0.0
20/01:30pm 21.4 16.0 2.2 28 9.1 WSW 20 30 11 16 1014.7 1013.3 0.0
20/01:00pm 20.5 15.2 1.9 29 8.7 SW 19 28 10 15 1015.1 1013.7 0.0
20/12:30pm 19.0 13.4 1.5 31 8.0 SW 20 33 11 18 1015.4 1014.0 0.0
20/12:00pm 18.2 13.1 2.9 36 7.2 SW 19 28 10 15 1015.5 1014.1 0.0
20/11:30am 18.1 13.4 3.2 37 7.0 SW 17 28 9 15 1015.7 1014.3 0.0
20/11:00am 17.1 11.9 3.8 41 6.3 SW 20 30 11 16 1015.8 1014.4 0.0
20/10:30am 15.9 11.5 4.6 47 5.4 SW 17 26 9 14 1015.9 1014.5 0.0
20/10:00am 15.3 10.9 4.7 49 5.0 SW 17 24 9 13 1015.7 1014.3 0.0
20/09:30am 15.2 10.9 5.1 51 4.8 SW 17 26 9 14 1015.7 1014.3 0.0
20/09:00am 14.1 9.5 5.7 57 4.0 SW 19 24 10 13 1015.7 1014.3 0.0
20/08:30am 13.3 9.2 6.2 62 3.4 WSW 17 24 9 13 1015.5 1014.1 0.0
20/08:00am 12.2 8.2 6.7 69 2.7 WSW 17 20 9 11 1015.3 1013.9 0.0
20/07:30am 10.8 7.9 6.6 75 2.0 WSW 11 15 6 8 1014.7 1013.3 0.0
20/07:00am 8.7 5.7 5.8 82 1.3 WSW 11 11 6 6 1014.3 1012.9 0.0
20/06:30am 9.2 6.5 5.8 79 1.6 WSW 9 11 5 6 1014.0 1012.6 0.0
20/06:00am 9.6 7.0 6.1 79 1.6 WSW 9 11 5 6 1013.6 1012.2 0.0
20/05:30am 9.7 7.0 5.7 76 1.9 WSW 9 9 5 5 1013.3 1011.9 0.0
20/05:00am 10.8 7.8 6.2 73 2.2 WSW 11 15 6 8 1012.8 1011.4 0.0
20/04:30am 10.0 7.6 5.4 73 2.1 W 7 9 4 5 1012.6 1011.2 0.0
20/04:00am 10.8 8.7 5.6 70 2.4 W 6 9 3 5 1012.5 1011.1 0.0
20/03:30am 11.7 9.4 5.8 67 2.8 SSW 7 9 4 5 1012.3 1010.9 0.0
20/03:00am 12.5 8.4 6.1 65 3.1 S 17 20 9 11 1012.3 1010.9 0.0
20/02:30am 13.0 7.7 6.6 65 3.1 S 24 33 13 18 1012.4 1011.0 0.0
20/02:00am 14.5 9.2 8.5 67 3.1 S 26 37 14 20 1012.4 1011.0 0.0
20/01:30am 15.8 10.3 7.6 58 4.1 SSW 26 37 14 20 1012.1 1010.7 0.0
20/01:00am 16.8 11.1 6.9 52 5.0 SW 26 35 14 19 1011.9 1010.5 0.0
20/12:30am 16.3 11.4 4.0 44 5.8 WSW 19 24 10 13 1011.9 1010.5 0.0
20/12:00am 16.2 11.4 2.6 40 6.2 WSW 17 22 9 12 1011.8 1010.4 0.0
 
Date/Time
EDT
Temp
°C
App
Temp
°C
Dew
Point
°C
Rel
Hum
%
Delta-T
°C
Wind Press
QNH
hPa
Press
MSL
hPa
Rain since
9am
mm
Dir  Spd
km/h
Gust
km/h
Spd
kts
Gust
kts
19/11:30pm 15.7 12.0 2.5 41 6.0 WNW 11 15 6 8 1011.6 1010.2 0.0
19/11:00pm 15.1 11.8 2.3 42 5.8 WNW 9 11 5 6 1011.7 1010.3 0.0
19/10:30pm 15.8 12.5 2.2 40 6.1 W 9 11 5 6 1011.7 1010.3 0.0
19/10:00pm 17.2 12.7 2.0 36 6.9 WSW 15 17 8 9 1011.5 1010.1 0.0
19/09:30pm 17.7 12.4 2.1 35 7.2 WSW 19 22 10 12 1011.4 1010.0 0.0
19/09:00pm 18.1 13.9 1.6 33 7.5 WSW 13 19 7 10 1011.0 1009.6 0.0
19/08:30pm 18.9 13.3 1.4 31 8.0 WSW 20 26 11 14 1010.7 1009.3 0.0
19/08:00pm 19.7 12.9 0.7 28 8.6 WSW 26 39 14 21 1010.4 1009.0 0.0
19/07:30pm 20.8 13.4 -0.5 24 9.5 WSW 28 39 15 21 1010.0 1008.6 0.0
19/07:00pm 21.9 14.8 -1.4 21 10.3 W 26 37 14 20 1009.7 1008.3 0.0
19/06:30pm 22.8 16.6 -0.6 21 10.6 WSW 22 35 12 19 1009.3 1007.8 0.0
19/06:00pm 23.2 17.4 -0.3 21 10.8 W 20 32 11 17 1009.2 1007.7 0.0
19/05:30pm 23.2 17.0 -0.3 21 10.7 W 22 35 12 19 1009.3 1007.8 0.0
19/05:00pm 23.3 17.2 0.4 22 10.6 W 22 33 12 18 1009.3 1007.8 0.0
19/04:30pm 23.2 16.8 0.9 23 10.4 WSW 24 37 13 20 1009.6 1008.1 0.0
19/04:00pm 23.4 16.9 0.5 22 10.7 W 24 33 13 18 1009.8 1008.4 0.0
19/03:30pm 22.8 16.1 1.2 24 10.1 WSW 26 35 14 19 1010.1 1008.7 0.0
19/03:00pm 23.1 16.8 1.5 24 10.2 WSW 24 37 13 20 1010.5 1009.1 0.0

Other Formats:

Comma delimited format used in spreadsheet applications
http://www.bom.gov.au/fwo/IDN60801/IDN60801.95709.axf

JavaScript Object Notation format (JSON) in row-major order
http://www.bom.gov.au/fwo/IDN60801/IDN60801.95709.json